Bridgeport, NE (69336)

4:56 AM MST on February 13, 2016 (GMT -0700)
Wickard Heating & Plumbing Office | | Change Station
CLOSE
Current Station
Personal Weather Station
Location: Bridgeport, NE
Elevation: 3681 ft
Nearby Weather Stations

Elev 3681 ft 41.67 °N, 103.10 °W | Updated 13 minutes ago

Mostly Cloudy
Mostly Cloudy
33.3 °F
Feels Like 29 °F
N
4.7
Wind Variable Wind from SSE

Today
High -- | Low -- °F
--% Chance of Precip.
Yesterday
High -- | Low -- °F
Precip. -- in
Pressure 30.17 in
Visibility 2.5 miles
Clouds Overcast 300 ft
Windchill 29 °F
Dew Point 30 °F
Humidity 86%
Rainfall 0.00 in
Snow Depth Not available.
6:50 AM 5:22 PM
Waxing Crescent, 30% visible
METAR KAIA 131153Z AUTO 18015KT 2 1/2SM BR OVC003 M01/M02 A3010 RMK AO2 SLP216 I1001 I6003 T10111017 11006 21011 56024
Pressure 30.17 in
Visibility 2.5 miles
Clouds Overcast 300 ft
Windchill 29 °F
Dew Point 30 °F
Humidity 86%
Rainfall 0.00 in
Snow Depth Not available.
6:50 AM 5:22 PM
Waxing Crescent, 30% visible
METAR KAIA 131153Z AUTO 18015KT 2 1/2SM BR OVC003 M01/M02 A3010 RMK AO2 SLP216 I1001 I6003 T10111017 11006 21011 56024

10-Day Weather Forecast

Almanac

Astronomy

Feb. 13, 2016 Rise Set
Actual Time
Civil Twilight
Nautical Twilight
Astronomical Twilight
Moon
Length of Visible Light
Length of Day
Tomorrow will be .
, % of the Moon is Illuminated

Today's Extremes

State Highs State Lows

Community

WunderPhotos

Upload Photos

1,892,541 photos uploaded!

WunderBlog® & News

Nearby

Air Quality

  Air Quality AQ Index Pollutant
Not available.

Snow Depth

Station Depth Elevation

Earthquake Activity

City Distance Mag. Time & Date
Minimum magnitude displayed is 2.5.

Coastal Water Temperatures

Place Temperature

Stations

Nearby Weather Stations

Station Location Temp. Windchill Dew Point Humidity Wind Precip. Elev Updated Type
                   

Watches & Warnings

There are currently no watches in effect.